Deer Park, Ohio
Current Conditions -  °F | °C
As of 1:53 PM on Sunday 21 Dec 2014 (Local Time) from KLUK Reporting Station
Clear Clear  
Wind Chill: 31°   Ceiling: Unl
Heat Index: 36°   Visibility: 10mi
Dew Point: 26°   Wind: 6mph
Humidity: 67%   Direction: 140°SE
Pressure: 30.24"   Gusts: NA
Location:  39.2094°N, 84.3952°W
Report Text: KLUK 211853Z 14005KT 10SM CLR 02/M03 A3024 RMK AO2 SLP246 T00221033
Loading
Personal Weather Stations






























Interactive Weather Map New forecast layout! Learn more

10-Day Weather Forecast

Advertisements
Track Severe Weather on mobile